Time;durP1;ratioP1;P1;durP2;ratioP2;P2;SDS_P1;SDS_P2;PMS_P1;PMS_P2;Temp;Humidity;BMP_temperature;BMP_pressure;BME280_temperature;BME280_humidity;BME280_pressure;Samples;Min_cycle;Max_cycle;Signal;HPM_P1;HPM_P2
2021/01/31 02:17:12;;;;;;;24.90;23.30;;;4.60;99.90;;;;;;4846474;29;21036;-89
2021/01/31 02:20:18;;;;;;;23.17;21.80;;;4.60;99.90;;;;;;4753770;30;20497;-86
2021/01/31 02:30:55;;;;;;;;;;;;;;;;;;;;;
2021/01/31 02:37:55;;;;;;;22.30;20.87;;;4.20;99.90;;;;;;4765415;29;20437;-86
2021/01/31 02:40:25;;;;;;;20.60;19.43;;;4.20;99.90;;;;;;4840704;29;20475;-86
2021/01/31 02:42:58;;;;;;;23.20;21.60;;;4.30;99.90;;;;;;4840787;29;20671;-84
2021/01/31 02:45:29;;;;;;;23.30;21.73;;;4.40;99.90;;;;;;4841193;29;21030;-87
2021/01/31 02:48:03;;;;;;;23.37;21.77;;;4.40;99.90;;;;;;4841493;29;20553;-88
2021/01/31 02:50:42;;;;;;;22.13;20.83;;;4.70;99.90;;;;;;4840854;29;20493;-86
2021/01/31 02:53:16;;;;;;;21.23;19.73;;;4.20;99.90;;;;;;4841166;29;21020;-87
2021/01/31 02:55:47;;;;;;;19.73;18.53;;;4.10;99.90;;;;;;4841011;29;20465;-85
2021/01/31 02:58:19;;;;;;;20.80;19.60;;;3.90;99.90;;;;;;4840649;29;21147;-84
2021/01/31 03:00:56;;;;;;;20.67;19.20;;;4.80;99.90;;;;;;4840558;29;20462;-85
2021/01/31 03:03:29;;;;;;;20.37;18.97;;;4.00;99.90;;;;;;4840384;29;20458;-86
2021/01/31 03:05:58;;;;;;;20.87;19.60;;;4.00;99.90;;;;;;4840283;29;20469;-85
2021/01/31 03:08:29;;;;;;;18.47;17.27;;;4.00;99.90;;;;;;4840099;29;20468;-79
2021/01/31 03:11:01;;;;;;;19.57;18.20;;;4.10;99.90;;;;;;4853400;29;20491;-79
2021/01/31 03:13:33;;;;;;;19.87;18.47;;;4.10;99.90;;;;;;4877373;29;20499;-79
2021/01/31 03:16:05;;;;;;;19.60;18.40;;;4.10;99.90;;;;;;4877169;29;20468;-79
2021/01/31 03:18:36;;;;;;;19.00;17.73;;;4.20;99.90;;;;;;4876976;29;20466;-79
2021/01/31 03:21:06;;;;;;;20.83;19.53;;;4.20;99.90;;;;;;4876703;29;20460;-79
2021/01/31 03:23:38;;;;;;;19.97;18.73;;;4.30;99.90;;;;;;4877068;29;20482;-78
2021/01/31 03:26:12;;;;;;;20.17;18.67;;;4.40;99.90;;;;;;4877010;29;20878;-78
2021/01/31 03:28:39;;;;;;;19.77;18.57;;;4.30;99.90;;;;;;4876922;29;20465;-79
2021/01/31 03:31:07;;;;;;;20.43;19.13;;;4.40;99.90;;;;;;4876641;29;20545;-79
2021/01/31 03:33:39;;;;;;;17.80;16.80;;;4.30;99.90;;;;;;4876655;29;20481;-80
2021/01/31 03:36:05;;;;;;;18.37;17.27;;;4.10;99.90;;;;;;4876595;29;20504;-80
2021/01/31 03:38:37;;;;;;;18.43;17.23;;;4.20;99.90;;;;;;4876663;29;20994;-80
2021/01/31 03:41:07;;;;;;;18.43;17.30;;;4.10;99.90;;;;;;4876880;29;20526;-80
2021/01/31 03:43:33;;;;;;;18.37;17.17;;;4.30;99.90;;;;;;4876714;29;20508;-80
2021/01/31 03:46:06;;;;;;;18.23;17.03;;;4.10;99.90;;;;;;4881800;29;20829;-79
2021/01/31 03:48:38;;;;;;;17.97;16.73;;;4.20;99.90;;;;;;4882964;29;20447;-79
2021/01/31 03:51:05;;;;;;;18.17;16.87;;;4.10;99.90;;;;;;4883073;29;20451;-80
2021/01/31 03:53:31;;;;;;;17.87;16.67;;;3.90;99.90;;;;;;4882531;29;21076;-80
2021/01/31 03:55:59;;;;;;;17.60;16.50;;;3.90;99.90;;;;;;4882718;29;20456;-81
2021/01/31 03:58:27;;;;;;;18.20;17.00;;;4.00;99.90;;;;;;4882934;29;20467;-81
2021/01/31 04:00:56;;;;;;;17.80;16.70;;;4.00;99.90;;;;;;4882861;29;20456;-81
2021/01/31 04:03:29;;;;;;;16.57;15.47;;;4.00;99.90;;;;;;4882744;29;20452;-81
2021/01/31 04:05:58;;;;;;;17.20;16.00;;;4.10;99.90;;;;;;4882995;29;20457;-80
2021/01/31 04:08:25;;;;;;;15.80;14.70;;;4.20;99.90;;;;;;4883054;29;20489;-80
2021/01/31 04:10:51;;;;;;;17.80;16.60;;;4.20;99.90;;;;;;4882229;29;20850;-80
2021/01/31 04:13:20;;;;;;;17.93;16.53;;;4.10;99.90;;;;;;4882478;29;20491;-80
2021/01/31 04:15:49;;;;;;;16.80;15.70;;;4.00;99.90;;;;;;4882770;29;20502;-79
2021/01/31 04:18:17;;;;;;;16.50;15.30;;;4.00;99.90;;;;;;4882590;29;20455;-78
2021/01/31 04:20:43;;;;;;;16.00;15.10;;;4.00;99.90;;;;;;4882773;29;20467;-79
2021/01/31 04:23:10;;;;;;;17.70;16.53;;;4.10;99.90;;;;;;4882767;29;20468;-79
2021/01/31 04:25:36;;;;;;;18.43;17.13;;;4.10;99.90;;;;;;4882417;29;20460;-78
2021/01/31 04:28:09;;;;;;;18.20;16.87;;;4.10;99.90;;;;;;4882448;29;20460;-78
2021/01/31 04:30:37;;;;;;;17.20;15.93;;;4.20;99.90;;;;;;4882525;29;20465;-78
2021/01/31 04:33:04;;;;;;;19.70;18.20;;;4.30;99.90;;;;;;4882470;29;20496;-79
2021/01/31 04:35:30;;;;;;;17.30;16.10;;;4.30;99.90;;;;;;4882806;29;20486;-78
2021/01/31 04:37:56;;;;;;;18.23;16.83;;;4.40;99.90;;;;;;4882994;29;20456;-79
2021/01/31 04:40:23;;;;;;;16.60;15.37;;;4.50;99.90;;;;;;4882317;29;20462;-78
2021/01/31 04:42:49;;;;;;;19.27;17.87;;;4.50;99.90;;;;;;4882375;29;20519;-79
2021/01/31 04:45:16;;;;;;;17.33;16.03;;;4.50;99.90;;;;;;4882128;29;20458;-78
2021/01/31 04:47:51;;;;;;;18.03;16.73;;;4.50;99.90;;;;;;4882621;29;20867;-79
2021/01/31 04:50:26;;;;;;;16.63;15.43;;;4.60;99.90;;;;;;4882360;29;20506;-78
2021/01/31 04:53:08;;;;;;;17.07;15.77;;;4.60;99.90;;;;;;4882416;29;20493;-78
2021/01/31 04:55:55;;;;;;;16.83;15.73;;;4.50;99.90;;;;;;4882073;29;20806;-79
2021/01/31 04:58:25;;;;;;;16.77;15.77;;;4.50;99.90;;;;;;4878919;29;20461;-81
2021/01/31 05:00:55;;;;;;;16.57;15.60;;;4.50;99.90;;;;;;4879484;29;20473;-82
2021/01/31 05:03:23;;;;;;;17.80;16.60;;;4.40;99.90;;;;;;4879228;29;20477;-82
2021/01/31 05:05:57;;;;;;;16.13;15.13;;;4.20;99.90;;;;;;4879194;29;20448;-83
2021/01/31 05:08:26;;;;;;;17.30;16.10;;;4.20;99.90;;;;;;4879453;29;20456;-84
2021/01/31 05:10:56;;;;;;;16.07;15.03;;;4.00;99.90;;;;;;4878865;29;20947;-83
2021/01/31 05:13:34;;;;;;;18.03;16.77;;;4.00;99.90;;;;;;4879138;29;20496;-82
2021/01/31 05:16:05;;;;;;;17.50;16.30;;;3.90;99.90;;;;;;4879339;29;20955;-82
2021/01/31 05:18:35;;;;;;;17.73;16.53;;;3.90;99.90;;;;;;4879015;29;20957;-82
2021/01/31 05:21:05;;;;;;;18.90;17.50;;;3.80;99.90;;;;;;4879067;29;20516;-82
2021/01/31 05:23:42;;;;;;;19.77;18.17;;;3.90;99.90;;;;;;4879404;29;20531;-81
2021/01/31 05:26:11;;;;;;;19.20;17.70;;;4.10;99.90;;;;;;4878887;29;20517;-80
2021/01/31 05:28:42;;;;;;;18.80;17.50;;;4.00;99.90;;;;;;4878899;29;20467;-80
2021/01/31 05:31:12;;;;;;;18.83;17.43;;;4.10;99.90;;;;;;4878911;29;20468;-80
2021/01/31 05:33:50;;;;;;;17.80;16.70;;;4.10;99.90;;;;;;4878629;29;20494;-81
2021/01/31 05:36:19;;;;;;;19.83;18.40;;;4.20;99.90;;;;;;4878747;29;20459;-79
2021/01/31 05:38:46;;;;;;;19.10;17.57;;;4.20;99.90;;;;;;4882325;29;20491;-82
2021/01/31 05:41:45;;;;;;;19.33;17.83;;;4.30;99.90;;;;;;4878737;29;20468;-82
2021/01/31 05:44:24;;;;;;;18.60;17.20;;;4.30;99.90;;;;;;4876216;29;20818;-81
2021/01/31 05:46:52;;;;;;;18.47;17.03;;;4.40;99.90;;;;;;4878463;29;20465;-81
2021/01/31 05:49:36;;;;;;;18.77;17.30;;;4.40;99.90;;;;;;4878564;29;20473;-79
2021/01/31 05:52:03;;;;;;;18.90;17.67;;;4.40;99.90;;;;;;4878172;29;20491;-80
2021/01/31 05:54:34;;;;;;;17.30;16.00;;;4.40;99.90;;;;;;4878804;29;20462;-79
2021/01/31 05:57:01;;;;;;;18.13;16.77;;;4.40;99.90;;;;;;4878370;29;20833;-79
2021/01/31 05:59:38;;;;;;;19.70;18.20;;;4.40;99.90;;;;;;4878443;29;21050;-78
2021/01/31 06:02:04;;;;;;;19.23;17.80;;;4.40;99.90;;;;;;4878015;29;20484;-80
2021/01/31 06:04:32;;;;;;;19.33;18.13;;;4.50;99.90;;;;;;4878379;29;20479;-77
2021/01/31 06:07:09;;;;;;;19.93;18.50;;;4.60;99.90;;;;;;4878684;29;20553;-80
2021/01/31 06:09:40;;;;;;;19.40;17.83;;;4.40;99.90;;;;;;4877594;29;20480;-78
2021/01/31 06:12:10;;;;;;;19.10;17.60;;;4.50;99.90;;;;;;4877786;29;20510;-80
2021/01/31 06:14:41;;;;;;;19.30;17.83;;;4.60;99.90;;;;;;4877842;29;20452;-77
2021/01/31 06:17:16;;;;;;;18.07;16.87;;;4.60;99.90;;;;;;4877873;29;20461;-79
2021/01/31 06:19:44;;;;;;;17.73;16.53;;;4.40;99.90;;;;;;4878356;29;20466;-78
2021/01/31 06:22:13;;;;;;;18.40;17.20;;;4.40;99.90;;;;;;4877939;29;20515;-79
2021/01/31 06:24:47;;;;;;;17.93;16.73;;;4.40;99.90;;;;;;4877640;29;20524;-79
2021/01/31 06:27:27;;;;;;;17.10;15.93;;;4.30;99.90;;;;;;4878262;29;20484;-78
2021/01/31 06:30:04;;;;;;;17.50;16.37;;;4.30;99.90;;;;;;4877972;29;20518;-79
2021/01/31 06:32:32;;;;;;;18.27;17.07;;;4.40;99.90;;;;;;4877462;29;20549;-79
2021/01/31 06:35:03;;;;;;;16.90;15.80;;;4.40;99.90;;;;;;4877758;29;20456;-79
2021/01/31 06:37:40;;;;;;;18.40;17.20;;;4.50;99.90;;;;;;4877725;29;20981;-78
2021/01/31 06:40:22;;;;;;;16.43;15.40;;;4.50;99.90;;;;;;4877676;29;20478;-80
2021/01/31 06:42:59;;;;;;;16.90;15.80;;;4.60;99.90;;;;;;4877276;29;20470;-77
2021/01/31 06:45:35;;;;;;;18.07;16.80;;;4.70;99.90;;;;;;4877410;29;20457;-76
2021/01/31 06:48:30;;;;;;;16.60;15.50;;;4.70;99.90;;;;;;4877653;29;20470;-78
2021/01/31 06:51:32;;;;;;;17.20;16.00;;;4.60;99.90;;;;;;4877630;29;20515;-78
2021/01/31 06:54:22;;;;;;;19.10;17.70;;;4.70;99.90;;;;;;4877316;29;20452;-77
2021/01/31 06:57:13;;;;;;;18.60;17.00;;;4.60;99.90;;;;;;4876975;29;20483;-77
2021/01/31 06:59:54;;;;;;;17.40;16.30;;;4.70;99.90;;;;;;4877472;29;20454;-81
2021/01/31 07:03:00;;;;;;;18.27;16.97;;;4.80;99.90;;;;;;4877357;29;20466;-80
2021/01/31 07:05:48;;;;;;;16.10;15.00;;;4.60;99.90;;;;;;4877451;29;20463;-80
2021/01/31 07:08:46;;;;;;;18.50;17.20;;;4.50;99.90;;;;;;4877165;29;20470;-82
2021/01/31 07:11:28;;;;;;;18.87;17.43;;;4.60;99.90;;;;;;4877151;29;20487;-82
2021/01/31 07:14:06;;;;;;;19.30;17.80;;;4.50;99.90;;;;;;4877440;29;20482;-82
2021/01/31 07:16:41;;;;;;;17.87;16.67;;;4.60;99.90;;;;;;4877357;29;20443;-81
2021/01/31 07:19:13;;;;;;;18.03;16.67;;;4.70;99.90;;;;;;4876439;29;20458;-79
2021/01/31 07:21:45;;;;;;;17.23;15.90;;;4.70;99.90;;;;;;4876934;29;20809;-79
2021/01/31 07:24:20;;;;;;;19.50;18.00;;;4.70;99.90;;;;;;4876838;29;20989;-77
2021/01/31 07:26:51;;;;;;;16.80;15.70;;;4.70;99.90;;;;;;4876640;29;20518;-78
2021/01/31 07:29:23;;;;;;;17.97;16.57;;;4.70;99.90;;;;;;4876769;29;20460;-78
2021/01/31 07:31:50;;;;;;;17.03;15.90;;;4.80;99.90;;;;;;4876369;29;20946;-79
2021/01/31 07:34:23;;;;;;;17.67;16.00;;;4.60;99.90;;;;;;4876722;29;20465;-79
2021/01/31 07:37:08;;;;;;;17.87;16.57;;;4.60;99.90;;;;;;4876357;29;21028;-77
2021/01/31 07:39:52;;;;;;;17.43;16.17;;;4.60;99.90;;;;;;4876556;29;20529;-78
2021/01/31 07:42:20;;;;;;;17.27;16.07;;;4.70;99.90;;;;;;4876441;29;20456;-78
2021/01/31 07:44:47;;;;;;;16.57;15.40;;;4.80;99.90;;;;;;4876491;29;20971;-78
2021/01/31 07:47:14;;;;;;;19.03;17.63;;;4.80;99.90;;;;;;4876729;29;20461;-77
2021/01/31 07:50:21;;;;;;;17.50;16.10;;;4.90;99.90;;;;;;4876595;29;20471;-77
2021/01/31 07:52:52;;;;;;;17.67;16.47;;;4.80;99.90;;;;;;4866290;29;20492;-77
2021/01/31 07:55:28;;;;;;;18.77;17.47;;;4.60;99.90;;;;;;4876334;29;20465;-77
2021/01/31 07:58:38;;;;;;;18.80;17.40;;;4.80;99.90;;;;;;4876560;29;20494;-77
2021/01/31 08:01:05;;;;;;;18.50;17.30;;;5.00;99.90;;;;;;4876335;29;20466;-77
2021/01/31 08:03:34;;;;;;;16.57;15.57;;;5.00;99.90;;;;;;4876337;29;20829;-77
2021/01/31 08:06:04;;;;;;;17.70;16.50;;;5.10;99.90;;;;;;4876160;29;20461;-78
2021/01/31 08:08:38;;;;;;;17.10;16.00;;;5.30;99.90;;;;;;4876495;29;20475;-76
2021/01/31 08:11:09;;;;;;;17.30;16.20;;;5.50;99.90;;;;;;4875903;29;20517;-77
2021/01/31 08:13:39;;;;;;;17.20;16.00;;;5.60;99.90;;;;;;4876134;29;20510;-75
2021/01/31 08:16:42;;;;;;;16.33;15.43;;;5.60;99.90;;;;;;4876252;29;20458;-75
2021/01/31 08:19:24;;;;;;;15.83;14.87;;;5.40;99.90;;;;;;4875916;29;20462;-75
2021/01/31 08:21:53;;;;;;;16.50;15.40;;;5.40;99.90;;;;;;4876376;29;20855;-77
2021/01/31 08:25:01;;;;;;;16.10;15.10;;;5.30;99.90;;;;;;4876033;29;20969;-75
2021/01/31 08:27:49;;;;;;;16.57;15.47;;;5.20;99.90;;;;;;4876456;29;20464;-77
2021/01/31 08:30:22;;;;;;;17.03;16.00;;;5.10;99.90;;;;;;4876175;29;20466;-75
2021/01/31 08:33:17;;;;;;;15.87;14.77;;;5.30;99.90;;;;;;4879542;29;21137;-76
2021/01/31 08:35:57;;;;;;;15.23;14.30;;;5.50;99.90;;;;;;4879885;29;20523;-77
2021/01/31 08:38:34;;;;;;;17.10;16.00;;;5.30;99.90;;;;;;4879664;29;20873;-78
2021/01/31 08:41:46;;;;;;;15.93;14.93;;;5.20;99.90;;;;;;4879651;29;20469;-78
2021/01/31 08:44:43;;;;;;;16.33;15.17;;;5.30;99.90;;;;;;4879207;29;20448;-78
2021/01/31 08:47:11;;;;;;;16.43;15.33;;;5.40;99.90;;;;;;4878171;29;20489;-78
2021/01/31 08:49:37;;;;;;;16.40;15.40;;;5.40;99.90;;;;;;4878727;29;20466;-77
2021/01/31 08:52:06;;;;;;;16.03;15.03;;;5.60;99.90;;;;;;4878959;29;20554;-77
2021/01/31 08:54:33;;;;;;;15.83;14.93;;;5.70;99.90;;;;;;4878777;29;20464;-78
2021/01/31 08:57:01;;;;;;;18.27;16.90;;;5.70;99.90;;;;;;4879001;29;20455;-78
2021/01/31 08:59:29;;;;;;;18.03;16.83;;;5.90;99.90;;;;;;4879204;29;20456;-80
2021/01/31 09:02:17;;;;;;;17.07;15.97;;;5.80;99.90;;;;;;4879168;29;20464;-80
2021/01/31 09:04:45;;;;;;;16.13;15.10;;;5.80;99.90;;;;;;4858197;29;20467;-79
2021/01/31 09:07:13;;;;;;;16.27;15.30;;;5.90;99.90;;;;;;4860434;29;20558;-79
2021/01/31 09:09:46;;;;;;;16.63;15.53;;;6.00;99.90;;;;;;4860168;29;20488;-79
2021/01/31 09:12:14;;;;;;;14.80;13.90;;;6.10;99.90;;;;;;4860197;29;20515;-78
2021/01/31 09:14:42;;;;;;;15.97;14.93;;;6.10;99.90;;;;;;4860150;29;20453;-77
2021/01/31 09:17:11;;;;;;;16.57;15.57;;;6.10;99.90;;;;;;4860051;29;20480;-77
2021/01/31 09:19:39;;;;;;;16.03;14.93;;;6.10;99.90;;;;;;4862976;29;20461;-77
2021/01/31 09:22:10;;;;;;;16.50;15.30;;;6.10;99.90;;;;;;4878490;29;20520;-77
2021/01/31 09:24:39;;;;;;;16.90;15.90;;;5.90;99.90;;;;;;4878358;29;20458;-76
2021/01/31 09:27:07;;;;;;;17.87;16.77;;;5.80;99.90;;;;;;4878395;29;20458;-77
2021/01/31 09:29:34;;;;;;;16.87;15.87;;;5.80;99.90;;;;;;4878442;29;20454;-78
2021/01/31 09:32:05;;;;;;;16.60;15.60;;;6.00;99.90;;;;;;4878360;29;20471;-78
2021/01/31 09:34:33;;;;;;;15.20;14.17;;;6.20;99.90;;;;;;4878502;29;20529;-78
2021/01/31 09:37:07;;;;;;;17.77;16.57;;;6.10;99.90;;;;;;4878551;29;20473;-77
2021/01/31 09:39:35;;;;;;;17.10;15.90;;;6.20;99.90;;;;;;4878249;29;20816;-77
2021/01/31 09:42:03;;;;;;;17.70;16.40;;;6.20;99.90;;;;;;4877802;29;20995;-78
2021/01/31 09:44:32;;;;;;;16.40;15.30;;;6.30;99.90;;;;;;4877838;29;20463;-75
2021/01/31 09:46:58;;;;;;;17.43;16.27;;;6.50;99.90;;;;;;4878132;29;20963;-77
2021/01/31 09:49:26;;;;;;;17.30;16.00;;;6.50;99.90;;;;;;4877895;29;20479;-75
2021/01/31 09:52:03;;;;;;;17.10;16.00;;;6.40;99.90;;;;;;4877896;29;20459;-77
2021/01/31 09:54:32;;;;;;;16.37;15.30;;;6.40;99.90;;;;;;4878077;29;20965;-77
2021/01/31 09:57:00;;;;;;;17.63;16.40;;;6.50;99.90;;;;;;4878301;29;20458;-77
2021/01/31 09:59:29;;;;;;;18.20;17.00;;;6.50;99.90;;;;;;4878007;29;20578;-76
2021/01/31 10:02:04;;;;;;;17.90;16.73;;;6.30;99.90;;;;;;4878127;29;20452;-76
2021/01/31 10:04:31;;;;;;;16.47;15.47;;;6.60;99.90;;;;;;4878218;29;20468;-77
2021/01/31 10:07:06;;;;;;;19.17;17.77;;;6.50;99.90;;;;;;4878093;29;20946;-77
2021/01/31 10:09:35;;;;;;;18.70;17.40;;;6.40;99.90;;;;;;4877780;29;20494;-76
2021/01/31 10:12:25;;;;;;;20.70;19.03;;;6.30;99.90;;;;;;4877265;29;20519;-78
2021/01/31 10:14:53;;;;;;;18.87;17.67;;;6.10;99.90;;;;;;4877914;29;20475;-78
2021/01/31 10:17:22;;;;;;;19.03;17.43;;;6.20;99.90;;;;;;4877758;29;20581;-77
2021/01/31 10:20:26;;;;;;;18.87;17.57;;;6.30;99.90;;;;;;4877598;29;20789;-78
2021/01/31 10:22:54;;;;;;;17.53;16.00;;;6.20;99.90;;;;;;4877811;29;20486;-77
2021/01/31 10:25:21;;;;;;;17.80;16.40;;;6.20;99.90;;;;;;4877635;29;20459;-77
2021/01/31 10:27:48;;;;;;;19.10;17.80;;;6.10;99.90;;;;;;4877767;29;20824;-77
2021/01/31 10:30:23;;;;;;;17.53;16.33;;;6.30;99.90;;;;;;4877784;29;20970;-77
2021/01/31 10:32:50;;;;;;;18.63;17.13;;;6.30;99.90;;;;;;4877536;29;20498;-78
2021/01/31 10:35:35;;;;;;;18.17;16.77;;;6.30;99.90;;;;;;4877476;29;20533;-77
2021/01/31 10:38:26;;;;;;;16.57;15.37;;;6.40;99.90;;;;;;4877535;29;20458;-78
2021/01/31 10:40:53;;;;;;;17.60;16.10;;;6.40;99.90;;;;;;4877568;29;20463;-77
2021/01/31 10:43:19;;;;;;;19.63;17.73;;;6.50;99.90;;;;;;4877423;29;20483;-77
2021/01/31 10:45:46;;;;;;;15.97;14.77;;;6.70;99.90;;;;;;4877462;29;20872;-77
2021/01/31 10:48:12;;;;;;;17.73;16.37;;;6.80;99.90;;;;;;4877481;29;20973;-77
2021/01/31 10:50:38;;;;;;;17.30;16.00;;;6.80;99.90;;;;;;4877374;29;20459;-78
2021/01/31 10:53:05;;;;;;;18.17;16.97;;;6.80;99.90;;;;;;4877238;29;20503;-77
2021/01/31 10:55:32;;;;;;;19.00;17.70;;;6.90;99.90;;;;;;4876055;29;20474;-76
2021/01/31 10:57:59;;;;;;;18.97;17.57;;;6.90;99.90;;;;;;4877383;29;20946;-76
2021/01/31 11:00:25;;;;;;;17.53;16.23;;;6.90;99.90;;;;;;4877261;29;20459;-76
2021/01/31 11:02:51;;;;;;;17.33;16.03;;;6.90;99.90;;;;;;4876871;29;20459;-77
2021/01/31 11:05:18;;;;;;;17.57;16.43;;;7.10;99.90;;;;;;4876744;29;20460;-75
2021/01/31 11:07:44;;;;;;;16.83;15.63;;;7.40;99.90;;;;;;4876883;29;20966;-76
2021/01/31 11:10:13;;;;;;;17.90;16.80;;;7.40;99.90;;;;;;4876517;29;20475;-76
2021/01/31 11:12:40;;;;;;;17.97;16.57;;;7.30;99.90;;;;;;4876817;29;20574;-75
2021/01/31 11:15:08;;;;;;;17.40;16.27;;;7.30;99.90;;;;;;4876689;29;20691;-75
2021/01/31 11:17:34;;;;;;;18.57;17.13;;;7.40;99.90;;;;;;4876833;29;20453;-75
2021/01/31 11:20:01;;;;;;;17.13;15.83;;;7.40;99.90;;;;;;4876790;29;20824;-76
2021/01/31 11:22:27;;;;;;;17.23;16.13;;;7.50;99.90;;;;;;4876789;29;20515;-75
2021/01/31 11:24:53;;;;;;;18.80;17.40;;;7.70;99.90;;;;;;4876557;29;20525;-76
2021/01/31 11:27:20;;;;;;;17.80;16.60;;;7.70;99.90;;;;;;4876484;29;20460;-76
2021/01/31 11:29:46;;;;;;;16.43;15.40;;;7.80;99.90;;;;;;4876391;29;20468;-76
2021/01/31 11:32:12;;;;;;;17.47;16.47;;;8.10;99.90;;;;;;4876395;29;20704;-76
2021/01/31 11:34:39;;;;;;;18.83;17.33;;;8.50;99.90;;;;;;4876255;29;20459;-75
2021/01/31 11:37:05;;;;;;;17.60;16.50;;;8.70;99.90;;;;;;4876224;29;20464;-76
2021/01/31 11:39:31;;;;;;;17.33;16.03;;;8.70;99.90;;;;;;4876401;29;20456;-77
2021/01/31 11:41:58;;;;;;;16.77;15.77;;;8.60;99.90;;;;;;4876474;29;20488;-75
2021/01/31 11:44:25;;;;;;;17.10;16.10;;;8.50;99.90;;;;;;4876277;29;20520;-75
2021/01/31 11:46:52;;;;;;;17.90;16.70;;;8.40;99.90;;;;;;4876143;29;20459;-77
2021/01/31 11:49:18;;;;;;;18.23;17.03;;;8.40;99.90;;;;;;4876050;29;20924;-75
2021/01/31 11:51:44;;;;;;;17.53;16.23;;;8.00;99.90;;;;;;4876259;29;20456;-75
2021/01/31 11:54:11;;;;;;;17.87;16.73;;;7.80;99.90;;;;;;4875942;29;20591;-75
2021/01/31 11:56:37;;;;;;;17.07;15.87;;;7.90;99.90;;;;;;4876229;29;20749;-75
2021/01/31 11:59:04;;;;;;;17.20;16.10;;;8.10;99.90;;;;;;4876009;29;20577;-75
2021/01/31 12:01:31;;;;;;;18.13;16.80;;;7.90;99.90;;;;;;4876307;29;20456;-76
2021/01/31 12:03:57;;;;;;;17.13;15.93;;;7.70;99.90;;;;;;4876521;29;20508;-76
2021/01/31 12:06:23;;;;;;;18.00;16.60;;;8.00;99.90;;;;;;4877948;29;20508;-77
2021/01/31 12:08:49;;;;;;;18.43;17.23;;;7.90;99.90;;;;;;4879947;29;21212;-78
2021/01/31 12:11:16;;;;;;;18.70;17.40;;;7.90;99.90;;;;;;4880168;29;20480;-78
2021/01/31 12:13:42;;;;;;;17.70;16.70;;;7.90;99.90;;;;;;4880193;29;20500;-79
2021/01/31 12:16:08;;;;;;;18.00;16.80;;;7.90;99.90;;;;;;4879724;29;20464;-78
2021/01/31 12:18:35;;;;;;;18.80;17.50;;;7.60;99.90;;;;;;4879770;29;20464;-78
2021/01/31 12:21:01;;;;;;;18.17;16.60;;;7.50;99.90;;;;;;4879962;29;20467;-77
2021/01/31 12:23:27;;;;;;;17.60;16.30;;;7.40;99.90;;;;;;4880039;29;20459;-78
2021/01/31 12:25:53;;;;;;;17.87;16.57;;;7.40;99.90;;;;;;4879772;29;20456;-78
2021/01/31 12:28:20;;;;;;;17.17;15.87;;;7.30;99.90;;;;;;4879746;29;20455;-78
2021/01/31 12:30:46;;;;;;;17.63;16.43;;;7.30;99.90;;;;;;4879815;29;20986;-77
2021/01/31 12:33:12;;;;;;;16.40;15.20;;;7.40;99.90;;;;;;4879930;29;20488;-77
2021/01/31 12:35:39;;;;;;;18.67;17.37;;;7.70;99.90;;;;;;4879655;29;20475;-77
2021/01/31 12:38:06;;;;;;;19.57;18.07;;;7.50;99.90;;;;;;4879534;29;21094;-77
2021/01/31 12:40:33;;;;;;;18.23;16.90;;;7.60;99.90;;;;;;4879403;29;20464;-77
2021/01/31 12:42:59;;;;;;;17.73;16.53;;;7.80;99.90;;;;;;4879617;29;20467;-77
2021/01/31 12:45:25;;;;;;;18.60;17.20;;;7.70;99.90;;;;;;4879507;29;20456;-78
2021/01/31 12:47:52;;;;;;;17.90;16.60;;;7.60;99.90;;;;;;4879344;29;20472;-78
2021/01/31 12:50:21;;;;;;;16.43;15.33;;;7.50;99.90;;;;;;4879173;29;20558;-76
2021/01/31 12:52:48;;;;;;;18.37;17.13;;;7.50;99.90;;;;;;4877357;29;20523;-75
2021/01/31 12:55:15;;;;;;;17.93;16.63;;;7.60;99.90;;;;;;4879344;29;20455;-76
2021/01/31 12:57:41;;;;;;;18.37;17.17;;;7.70;99.90;;;;;;4879414;29;20491;-76
2021/01/31 13:00:11;;;;;;;18.30;17.00;;;7.70;99.90;;;;;;4879245;29;20460;-76
2021/01/31 13:02:38;;;;;;;16.10;15.00;;;7.70;99.90;;;;;;4879075;29;20463;-77
2021/01/31 13:05:05;;;;;;;16.93;15.97;;;7.40;99.90;;;;;;4879024;29;20491;-76
2021/01/31 13:07:31;;;;;;;17.13;15.83;;;7.20;99.90;;;;;;4879050;29;20534;-76
2021/01/31 13:09:58;;;;;;;16.33;15.23;;;7.10;99.90;;;;;;4878959;29;20480;-77
2021/01/31 13:12:25;;;;;;;17.03;15.83;;;6.90;99.90;;;;;;4878743;29;20488;-77
2021/01/31 13:14:51;;;;;;;17.17;16.00;;;7.00;99.90;;;;;;4878910;29;20535;-76
2021/01/31 13:17:17;;;;;;;17.07;15.90;;;6.90;99.90;;;;;;4877868;29;20870;-77
2021/01/31 13:19:43;;;;;;;17.37;16.17;;;6.60;99.90;;;;;;4878977;29;20467;-75
2021/01/31 13:22:10;;;;;;;16.57;15.43;;;6.70;99.90;;;;;;4878954;29;20938;-76
2021/01/31 13:24:36;;;;;;;17.70;16.43;;;6.70;99.90;;;;;;4878879;29;20460;-76
2021/01/31 13:27:03;;;;;;;19.00;17.80;;;6.90;99.90;;;;;;4878836;29;20989;-77
2021/01/31 13:29:29;;;;;;;17.27;16.13;;;7.00;99.90;;;;;;4878940;29;20470;-78
2021/01/31 13:31:56;;;;;;;19.03;17.47;;;7.20;99.90;;;;;;4878756;29;20459;-77
2021/01/31 13:34:22;;;;;;;18.63;17.27;;;7.20;99.90;;;;;;4878725;29;20492;-74
2021/01/31 13:36:48;;;;;;;17.83;16.63;;;7.30;99.90;;;;;;4878521;29;20456;-74
2021/01/31 13:39:14;;;;;;;17.43;16.13;;;7.20;99.90;;;;;;4878349;29;20780;-76
2021/01/31 13:41:40;;;;;;;18.47;17.07;;;7.20;99.90;;;;;;4878509;29;20456;-75
2021/01/31 13:44:07;;;;;;;18.03;16.83;;;7.20;99.90;;;;;;4878466;29;20464;-76
2021/01/31 13:46:34;;;;;;;17.93;16.63;;;7.30;99.90;;;;;;4878234;29;20460;-76
2021/01/31 13:49:00;;;;;;;18.60;17.30;;;7.30;99.90;;;;;;4878340;29;20464;-76
2021/01/31 13:51:27;;;;;;;18.53;17.07;;;7.40;99.90;;;;;;4878531;29;20844;-76
2021/01/31 13:53:53;;;;;;;17.20;16.10;;;7.20;99.90;;;;;;4877983;29;20523;-76
2021/01/31 13:56:19;;;;;;;18.20;17.10;;;7.20;99.90;;;;;;4878192;29;20794;-76
2021/01/31 13:58:45;;;;;;;17.07;15.97;;;7.20;99.90;;;;;;4878147;29;20528;-76
2021/01/31 14:01:12;;;;;;;19.00;17.60;;;7.00;99.90;;;;;;4878263;29;20456;-76
2021/01/31 14:03:38;;;;;;;18.37;16.90;;;7.00;99.90;;;;;;4878088;29;20512;-76
2021/01/31 14:06:05;;;;;;;18.53;17.10;;;7.00;99.90;;;;;;4877989;29;20460;-76
2021/01/31 14:08:31;;;;;;;18.10;16.83;;;6.90;99.90;;;;;;4878009;29;20471;-75
2021/01/31 14:10:57;;;;;;;18.37;17.17;;;7.00;99.90;;;;;;4877822;29;20626;-76
2021/01/31 14:13:23;;;;;;;17.30;16.20;;;7.10;99.90;;;;;;4877725;29;21018;-76
2021/01/31 14:15:49;;;;;;;17.63;16.43;;;7.30;99.90;;;;;;4874834;29;20456;-76
2021/01/31 14:18:17;;;;;;;17.90;16.67;;;7.50;99.90;;;;;;4885665;29;20531;-76
2021/01/31 14:20:43;;;;;;;17.27;16.17;;;7.60;99.90;;;;;;4885269;29;20495;-76
2021/01/31 14:23:09;;;;;;;17.17;15.87;;;7.60;99.90;;;;;;4881633;29;20472;-76
2021/01/31 14:25:36;;;;;;;17.27;16.10;;;7.50;99.90;;;;;;4889679;29;20455;-77
2021/01/31 14:28:02;;;;;;;18.83;17.33;;;7.60;99.90;;;;;;4896080;29;20465;-77
2021/01/31 14:30:28;;;;;;;18.03;16.73;;;7.60;99.90;;;;;;4896070;29;21139;-76
2021/01/31 14:32:54;;;;;;;17.60;16.30;;;7.50;99.90;;;;;;4893074;29;20495;-77
2021/01/31 14:35:24;;;;;;;17.50;15.97;;;7.50;99.90;;;;;;4877364;29;20463;-76
2021/01/31 14:37:51;;;;;;;17.87;16.73;;;7.30;99.90;;;;;;4877377;29;20578;-77
2021/01/31 14:40:18;;;;;;;18.67;17.13;;;7.30;99.90;;;;;;4877171;29;20457;-76
2021/01/31 14:42:45;;;;;;;19.20;17.80;;;7.40;99.90;;;;;;4877162;29;20459;-77
2021/01/31 14:45:16;;;;;;;17.87;16.57;;;7.40;99.90;;;;;;4877134;29;20465;-76
2021/01/31 14:47:42;;;;;;;18.00;16.70;;;7.60;99.90;;;;;;4877528;29;20472;-77
2021/01/31 14:50:09;;;;;;;18.10;16.70;;;7.50;99.90;;;;;;4881401;29;20444;-76
2021/01/31 14:52:36;;;;;;;18.37;16.97;;;7.40;99.90;;;;;;4895518;29;20586;-77
2021/01/31 14:55:07;;;;;;;18.57;17.17;;;7.50;99.90;;;;;;4882337;29;20490;-77
2021/01/31 14:57:33;;;;;;;17.80;16.50;;;7.40;99.90;;;;;;4877066;29;20856;-76
2021/01/31 15:00:00;;;;;;;16.83;15.73;;;7.30;99.90;;;;;;4876899;29;21036;-77
2021/01/31 15:02:26;;;;;;;18.20;16.80;;;7.40;99.90;;;;;;4876838;29;20471;-76
2021/01/31 15:04:52;;;;;;;19.10;17.60;;;7.40;99.90;;;;;;4876963;29;20463;-77
2021/01/31 15:07:19;;;;;;;18.57;17.10;;;7.50;99.90;;;;;;4876981;29;20460;-76
2021/01/31 15:09:45;;;;;;;18.03;16.63;;;7.50;99.90;;;;;;4876941;29;20825;-76
2021/01/31 15:12:12;;;;;;;18.57;17.10;;;7.50;99.90;;;;;;4876698;29;20484;-76
2021/01/31 15:14:38;;;;;;;19.03;17.53;;;7.50;99.90;;;;;;4876324;29;20492;-77
2021/01/31 15:17:04;;;;;;;18.13;16.77;;;7.50;99.90;;;;;;4875989;29;20812;-76
2021/01/31 15:19:30;;;;;;;17.30;15.97;;;7.50;99.90;;;;;;4876731;29;20467;-76
2021/01/31 15:21:57;;;;;;;16.77;15.53;;;7.40;99.90;;;;;;4876947;29;20448;-76
2021/01/31 15:24:23;;;;;;;18.07;16.70;;;7.50;99.90;;;;;;4881593;29;20504;-77
2021/01/31 15:26:50;;;;;;;18.97;17.50;;;7.60;99.90;;;;;;4895359;29;20837;-76